RJCA(METAR)
07/27 17:00
METAR RJCA 270800Z 17010KT 9999 FEW030 SCT050 BKN070 31/22 Q1003 RMK
1CU030 3CU050 6AC070 A2964=
戻る
トップページへ戻る
IMOC Co,.Ltd.